Saturday, May 26, 2018, 6:07 AM EDT
Back to Local

KPWM, Portland International Jetport

Location: Portland, ME, United States Lat: 43.65
Local Time: 6:07 AM EDT (10:07 GMT) Lon: -70.3
Time Zone: US/Eastern Elev: 75 ft

Show me the last for .
Show Decoded

2018-05-26 05:51 METAR KPWM 260951Z 23004KT 10SM BKN140 BKN250 19/14 A2968 RMK AO2 SLP050
                 T01940139 =
2018-05-26 04:51 METAR KPWM 260851Z 27003KT 10SM BKN140 BKN250 20/14 A2967 RMK AO2 SLP046 60000
                 T02000139 55000 =
2018-05-26 03:51 METAR KPWM 260751Z AUTO 20006KT 10SM CLR 21/13 A2966 RMK AO2 SLP042 T02060133 =
2018-05-26 02:51 METAR KPWM 260651Z AUTO VRB05KT 10SM FEW065 FEW080 SCT100 22/13 A2967 RMK AO2
                 RAB32E42 SLP046 P0000 T02220128 =
2018-05-26 01:51 METAR KPWM 260551Z AUTO VRB06KT 10SM OVC085 23/13 A2967 RMK AO2 SLP046 T02330128
                 10272 20233 58003 =
2018-05-26 00:51 METAR KPWM 260451Z AUTO VRB05KT 10SM OVC100 23/13 A2968 RMK AO2 SLP050 T02330128
                 403110100 =
2018-05-25 23:51 METAR KPWM 260351Z VRB06KT 10SM BKN130 OVC200 24/12 A2968 RMK AO2 SLP050 LAST
                 T02440122 =
2018-05-25 22:51 METAR KPWM 260251Z 18007KT 170V230 10SM FEW090 BKN140 OVC200 24/11 A2968 RMK AO2
                 SLP049 T02440111 50002 =
2018-05-25 21:51 METAR KPWM 260151Z 24005KT 10SM FEW090 BKN140 OVC200 26/11 A2968 RMK AO2 SLP051
                 T02560106 =
2018-05-25 20:51 METAR KPWM 260051Z VRB06KT 10SM SCT090 BKN140 OVC200 26/10 A2968 RMK AO2 SLP051
                 T02610100 =
2018-05-25 19:51 METAR KPWM 252351Z 21008KT 10SM FEW080 FEW110 SCT140 BKN200 27/09 A2967 RMK AO2
                 SLP048 T02670094 10311 20267 53001 =
2018-05-25 18:51 METAR KPWM 252251Z 25006KT 10SM BKN080 BKN140 BKN200 28/10 A2967 RMK AO2 SLP047
                 T02780100 =
2018-05-25 17:51 METAR KPWM 252151Z 25008G17KT 190V280 10SM BKN085 BKN110 OVC200 28/10 A2967 RMK
                 AO2 SLP046 T02830100 =
2018-05-25 16:51 METAR KPWM 252051Z 25010G21KT 10SM BKN085 BKN130 BKN200 29/09 A2967 RMK AO2 PK
                 WND 29027/2022 SLP047 T02890094 55012 =
2018-05-25 15:51 METAR KPWM 251951Z 25009G15KT 10SM FEW080 SCT130 BKN200 30/09 A2967 RMK AO2
                 SLP047 T03000094 =
2018-05-25 14:51 METAR KPWM 251851Z 25007G17KT 210V290 10SM FEW080 SCT140 BKN200 31/09 A2969 RMK
                 AO2 SLP052 T03060094 =
2018-05-25 13:51 METAR KPWM 251751Z 25011G19KT 10SM FEW080 BKN200 29/11 A2971 RMK AO2 SLP059
                 T02940106 10294 20206 58023 =
2018-05-25 12:51 METAR KPWM 251651Z 27012G20KT 10SM OVC200 27/10 A2974 RMK AO2 PK WND 28026/1558
                 SLP071 T02720100 =
2018-05-25 11:51 METAR KPWM 251551Z 26010G24KT 10SM BKN200 27/09 A2976 RMK AO2 PK WND 27026/1514
                 SLP077 T02720094 =
2018-05-25 10:51 METAR KPWM 251451Z 27013G20KT 10SM CLR 27/10 A2978 RMK AO2 SLP083 T02670100
                 58018 =
2018-05-25 09:51 METAR KPWM 251351Z 27008G18KT 220V310 10SM CLR 24/10 A2980 RMK AO2 SLP090
                 T02440100 =
2018-05-25 08:51 METAR KPWM 251251Z 27011G19KT 10SM CLR 23/10 A2981 RMK AO2 SLP094 T02330100 =
2018-05-25 07:51 METAR KPWM 251151Z VRB06G17KT 10SM CLR 21/10 A2983 RMK AO2 SLP101 T02060100
                 10206 20100 58008 =
2018-05-25 06:51 METAR KPWM 251051Z 24007KT 200V270 10SM CLR 17/09 A2985 RMK AO2 SLP106 T01720094
                 =

Support USWX by starting your Amazon purchase here.